Time;durP1;ratioP1;P1;durP2;ratioP2;P2;SDS_P1;SDS_P2;PMS_P1;PMS_P2;Temp;Humidity;BMP_temperature;BMP_pressure;BME280_temperature;BME280_humidity;BME280_pressure;Samples;Min_cycle;Max_cycle;Signal;HPM_P1;HPM_P2
2022/12/20 00:01:16;;;;;;;0.10;0.10;;;;;;;9.96;70.48;101322.31;5072342;28;20036;-81
2022/12/20 00:03:43;;;;;;;0.35;0.35;;;;;;;10.03;70.55;101324.03;5075226;28;20059;-82
2022/12/20 00:06:10;;;;;;;0.10;0.10;;;;;;;10.00;70.36;101324.03;5075911;28;20066;-82
2022/12/20 00:08:37;;;;;;;1.38;1.10;;;;;;;9.99;70.31;101322.31;5068118;28;20081;-83
2022/12/20 00:11:06;;;;;;;0.10;0.10;;;;;;;10.04;70.39;101309.00;5069077;28;20398;-82
2022/12/20 00:13:33;;;;;;;0.60;0.60;;;;;;;10.04;70.47;101309.91;5077400;28;20376;-82
2022/12/20 00:16:18;;;;;;;0.20;0.20;;;;;;;10.14;70.38;101309.78;5080000;28;20028;-82
2022/12/20 00:18:44;;;;;;;0.10;0.10;;;;;;;10.07;70.34;101308.09;5082059;28;20097;-83
2022/12/20 00:21:13;;;;;;;0.20;0.20;;;;;;;10.10;70.17;101313.38;5072193;28;20051;-84
2022/12/20 00:23:40;;;;;;;0.10;0.10;;;;;;;10.12;70.14;101317.75;5075244;28;20025;-83
2022/12/20 00:26:10;;;;;;;0.20;0.20;;;;;;;10.13;70.65;101315.97;5078934;28;20024;-83
2022/12/20 00:28:37;;;;;;;0.10;0.10;;;;;;;10.09;70.51;101311.63;5069772;28;20486;-83
2022/12/20 00:31:04;;;;;;;0.10;0.10;;;;;;;10.13;70.78;101318.63;5072580;28;20032;-81
2022/12/20 00:33:31;;;;;;;0.30;0.30;;;;;;;10.07;70.45;101314.28;5076630;28;20044;-82
2022/12/20 00:35:58;;;;;;;0.22;0.22;;;;;;;10.12;70.73;101311.56;5075213;28;20063;-80
2022/12/20 00:38:25;;;;;;;0.10;0.10;;;;;;;10.17;70.52;101320.38;5077312;28;20081;-80
2022/12/20 00:41:02;;;;;;;0.10;0.10;;;;;;;10.20;70.45;101315.03;5073508;28;20100;-80
2022/12/20 00:43:29;;;;;;;0.10;0.10;;;;;;;10.22;70.67;101307.94;5069454;28;20569;-79
2022/12/20 00:45:55;;;;;;;0.25;0.25;;;;;;;10.20;70.28;101304.44;5072753;28;20043;-81
2022/12/20 00:48:22;;;;;;;0.75;0.75;;;;;;;10.23;70.86;101299.13;5081624;28;20032;-82
2022/12/20 00:50:49;;;;;;;0.73;0.73;;;;;;;10.28;70.66;101286.69;5074721;28;20037;-81
2022/12/20 00:53:15;;;;;;;0.38;0.38;;;;;;;10.32;71.11;101284.88;5068791;28;20032;-82
2022/12/20 00:55:45;;;;;;;0.15;0.15;;;;;;;10.32;71.02;101287.53;5073590;28;20414;-79
2022/12/20 00:58:11;;;;;;;0.20;0.20;;;;;;;10.32;71.41;101283.09;5074795;28;20494;-81
2022/12/20 01:00:38;;;;;;;0.10;0.10;;;;;;;10.34;71.16;101276.03;5064907;28;20033;-82
2022/12/20 01:03:05;;;;;;;0.10;0.10;;;;;;;10.30;72.12;101274.28;5067153;28;20020;-82
2022/12/20 01:05:31;;;;;;;0.10;0.10;;;;;;;10.26;72.59;101272.59;5069604;28;20028;-82
2022/12/20 01:07:58;;;;;;;0.10;0.10;;;;;;;10.30;72.53;101269.00;5078860;28;20039;-82
2022/12/20 01:10:24;;;;;;;0.10;0.10;;;;;;;10.25;73.12;101264.66;5081745;28;20035;-83
2022/12/20 01:12:51;;;;;;;0.20;0.20;;;;;;;10.25;73.76;101260.22;5070511;28;20025;-82
2022/12/20 01:15:17;;;;;;;0.10;0.10;;;;;;;10.28;73.83;101249.63;5079151;28;20375;-83
2022/12/20 01:17:43;;;;;;;0.20;0.20;;;;;;;10.27;73.94;101236.38;5072824;28;20024;-83
2022/12/20 01:20:10;;;;;;;0.10;0.10;;;;;;;10.28;73.44;101249.63;5078365;28;20024;-83
2022/12/20 01:22:36;;;;;;;0.15;0.15;;;;;;;10.27;73.72;101257.56;5067409;28;20164;-82
2022/12/20 01:25:02;;;;;;;0.10;0.10;;;;;;;10.25;74.46;101254.06;5073377;28;20067;-82
2022/12/20 01:27:28;;;;;;;1.02;0.50;;;;;;;10.27;74.39;101252.25;5075149;28;20105;-82
2022/12/20 01:29:54;;;;;;;2.38;1.35;;;;;;;10.29;74.39;101240.78;5073670;28;20410;-82
2022/12/20 01:32:20;;;;;;;0.17;0.17;;;;;;;10.20;74.88;101235.56;5076598;28;20019;-81
2022/12/20 01:34:47;;;;;;;0.20;0.20;;;;;;;10.24;74.93;101247.88;5082401;28;20112;-81
2022/12/20 01:37:13;;;;;;;0.82;0.82;;;;;;;10.23;75.37;101239.97;5085306;28;20106;-80
2022/12/20 01:39:39;;;;;;;0.30;0.30;;;;;;;10.25;74.79;101246.13;5083845;28;20029;-81
2022/12/20 01:42:05;;;;;;;0.20;0.20;;;;;;;10.27;75.08;101234.63;5076466;28;20546;-80
2022/12/20 01:47:06;;;;;;;0.10;0.10;;;;;;;10.26;74.90;101224.91;5102928;27;1199085;-79
2022/12/20 01:49:39;;;;;;;0.10;0.10;;;;;;;10.26;74.94;101229.34;5124232;27;20110;-80
2022/12/20 01:52:12;;;;;;;0.10;0.10;;;;;;;10.29;75.49;101216.94;5126729;27;20024;-80
2022/12/20 01:57:26;;;;;;;0.20;0.20;;;;;;;10.26;75.37;101216.97;5094910;27;20410;-80
2022/12/20 01:59:54;;;;;;;0.73;0.73;;;;;;;10.27;75.11;101221.38;5087638;28;20032;-79
2022/12/20 02:02:20;;;;;;;0.10;0.10;;;;;;;10.24;75.16;101216.09;5084835;28;20027;-81
2022/12/20 02:04:47;;;;;;;0.10;0.10;;;;;;;10.26;74.45;101214.31;5082870;28;20028;-81
2022/12/20 02:07:19;;;;;;;0.20;0.20;;;;;;;10.25;75.51;101207.25;5080910;28;20608;-81
2022/12/20 02:09:45;;;;;;;0.20;0.20;;;;;;;10.22;75.12;101217.91;5079759;28;20460;-81
2022/12/20 02:12:16;;;;;;;0.20;0.20;;;;;;;10.25;75.33;101212.56;5080712;28;20063;-82
2022/12/20 02:15:05;;;;;;;0.20;0.20;;;;;;;10.27;75.47;101213.44;5072179;28;20025;-82
2022/12/20 02:18:11;;;;;;;6.93;5.10;;;;;;;10.30;75.16;101210.72;5082073;28;20038;-81
2022/12/20 02:21:06;;;;;;;1.75;1.13;;;;;;;10.26;75.83;101213.47;5081187;28;20161;-80
2022/12/20 02:30:00;;;;;;;0.75;0.75;;;;;;;10.35;75.59;101218.63;5089531;27;20392;-80
2022/12/20 02:32:32;;;;;;;0.20;0.20;;;;;;;10.36;76.05;101221.28;5083027;28;20024;-80
2022/12/20 02:34:58;;;;;;;0.20;0.20;;;;;;;10.30;75.95;101221.31;5084943;28;20032;-81
2022/12/20 02:37:24;;;;;;;0.20;0.20;;;;;;;10.36;75.76;101208.03;5093156;28;20516;-79
2022/12/20 02:39:51;;;;;;;0.20;0.20;;;;;;;10.38;75.77;101207.13;5090628;28;20059;-80
2022/12/20 02:42:21;;;;;;;0.10;0.10;;;;;;;10.36;75.76;101208.03;5091090;28;20046;-80
2022/12/20 02:45:14;;;;;;;0.20;0.20;;;;;;;10.32;76.24;101203.66;5082238;28;20397;-80
2022/12/20 02:50:31;;;;;;;0.10;0.10;;;;;;;10.36;75.94;101192.13;5038627;28;20794;-79
2022/12/20 02:52:59;;;;;;;0.20;0.20;;;;;;;10.38;75.79;101197.44;5046636;28;20112;-79
2022/12/20 02:55:38;;;;;;;0.20;0.20;;;;;;;10.45;75.74;101204.38;5042586;28;20021;-79
2022/12/20 02:58:11;;;;;;;0.35;0.35;;;;;;;10.35;75.50;101185.09;5044343;28;20014;-80
2022/12/20 03:00:42;;;;;;;0.20;0.20;;;;;;;10.42;75.34;101188.53;5046163;28;20553;-79
2022/12/20 03:03:24;;;;;;;0.20;0.20;;;;;;;10.40;75.19;101200.06;5026718;28;20034;-80
2022/12/20 03:05:54;;;;;;;0.15;0.15;;;;;;;10.33;75.10;101192.16;5045813;28;20358;-79
2022/12/20 03:08:22;;;;;;;0.10;0.10;;;;;;;10.33;75.49;101194.81;5044592;28;20037;-80
2022/12/20 03:10:50;;;;;;;0.10;0.10;;;;;;;10.33;74.88;101185.97;5055606;28;20021;-80
2022/12/20 03:13:16;;;;;;;0.85;0.85;;;;;;;10.29;75.09;101195.75;5060020;28;20267;-79
2022/12/20 03:15:43;;;;;;;0.20;0.20;;;;;;;10.28;75.47;101195.75;5047570;28;20028;-82
2022/12/20 03:18:09;;;;;;;0.20;0.20;;;;;;;10.25;75.31;101180.78;5053523;28;20025;-79
2022/12/20 03:20:35;;;;;;;0.30;0.30;;;;;;;10.24;75.62;101189.63;5037781;28;20038;-79
2022/12/20 03:23:01;;;;;;;0.10;0.10;;;;;;;10.28;75.17;101191.34;5048028;28;20103;-79
2022/12/20 03:25:28;;;;;;;0.85;0.85;;;;;;;10.31;75.32;101190.44;5039812;28;20026;-79
2022/12/20 03:27:54;;;;;;;0.20;0.20;;;;;;;10.32;75.01;101179.81;5043665;28;20125;-79
2022/12/20 03:30:20;;;;;;;0.22;0.22;;;;;;;10.28;75.32;101186.06;5048096;28;20042;-80
2022/12/20 03:32:46;;;;;;;0.10;0.10;;;;;;;10.34;75.38;101179.78;5046350;28;20021;-80
2022/12/20 03:35:13;;;;;;;0.13;0.13;;;;;;;10.29;75.04;101171.91;5027049;28;20073;-79
2022/12/20 03:37:39;;;;;;;0.20;0.20;;;;;;;10.35;75.21;101177.13;5032797;28;20038;-79
2022/12/20 03:40:06;;;;;;;0.20;0.20;;;;;;;10.37;75.08;101169.19;5035490;28;20022;-80
2022/12/20 03:42:34;;;;;;;0.47;0.47;;;;;;;10.30;75.32;101172.78;5039009;28;20021;-79
2022/12/20 03:45:04;;;;;;;0.15;0.15;;;;;;;10.43;75.03;101171.75;5034982;28;20466;-79
2022/12/20 03:47:30;;;;;;;0.10;0.10;;;;;;;10.43;75.07;101162.91;5036365;28;20492;-79
2022/12/20 03:49:56;;;;;;;0.10;0.10;;;;;;;10.44;75.12;101165.56;5033902;28;20116;-79
2022/12/20 03:52:22;;;;;;;0.20;0.20;;;;;;;10.44;74.79;101160.28;5036809;28;20392;-79
2022/12/20 03:54:49;;;;;;;0.25;0.25;;;;;;;10.46;74.12;101168.19;5032765;28;20514;-79
2022/12/20 03:57:15;;;;;;;0.15;0.15;;;;;;;10.44;74.57;101169.97;5035002;28;20112;-79
2022/12/20 03:59:42;;;;;;;0.20;0.20;;;;;;;10.48;74.04;101179.63;5026929;28;20049;-78
2022/12/20 04:02:08;;;;;;;1.75;1.65;;;;;;;10.45;74.62;101183.19;5021862;28;20060;-78
2022/12/20 04:04:34;;;;;;;0.20;0.20;;;;;;;10.53;74.36;101180.47;5026499;28;20035;-79
2022/12/20 04:07:01;;;;;;;0.65;0.65;;;;;;;10.54;74.29;101173.38;5020649;28;20117;-78
2022/12/20 04:09:27;;;;;;;0.20;0.20;;;;;;;10.54;74.32;101171.59;5019532;28;20029;-77
2022/12/20 04:11:53;;;;;;;2.00;0.73;;;;;;;10.59;74.60;101167.13;5017680;28;20030;-77
2022/12/20 04:14:19;;;;;;;0.75;0.55;;;;;;;10.62;74.32;101168.84;5022235;28;20112;-75
2022/12/20 04:16:45;;;;;;;0.40;0.40;;;;;;;10.67;74.40;101162.56;5026322;28;20551;-79
2022/12/20 04:19:11;;;;;;;0.10;0.10;;;;;;;10.68;74.26;101159.00;5027608;28;20111;-76
2022/12/20 04:21:38;;;;;;;0.35;0.35;;;;;;;10.72;74.41;101151.91;5023426;28;20021;-76
2022/12/20 04:24:05;;;;;;;0.10;0.10;;;;;;;10.78;74.65;101159.75;5014824;28;20535;-77
2022/12/20 04:26:31;;;;;;;0.20;0.20;;;;;;;10.78;74.21;101165.06;5028094;28;20025;-77
2022/12/20 04:28:57;;;;;;;0.20;0.20;;;;;;;10.79;74.34;101144.72;5020968;28;20031;-78
2022/12/20 04:31:23;;;;;;;0.10;0.10;;;;;;;10.80;74.41;101146.47;5022086;28;20446;-78
2022/12/20 04:33:50;;;;;;;0.10;0.10;;;;;;;10.85;74.71;101157.88;5026586;28;20036;-79
2022/12/20 04:36:16;;;;;;;0.20;0.20;;;;;;;10.87;74.68;101155.22;5025241;28;20026;-78
2022/12/20 04:38:42;;;;;;;0.17;0.17;;;;;;;10.84;75.16;101149.06;5012670;28;20033;-78
2022/12/20 04:41:08;;;;;;;0.10;0.10;;;;;;;10.90;74.94;101152.50;5028511;28;20052;-79
2022/12/20 04:43:34;;;;;;;0.20;0.20;;;;;;;10.94;75.38;101156.84;5029124;28;20033;-79
2022/12/20 04:46:00;;;;;;;0.20;0.20;;;;;;;10.91;75.57;101155.13;5025610;28;20044;-78
2022/12/20 04:48:27;;;;;;;0.15;0.15;;;;;;;10.97;76.28;101152.38;5026310;28;20112;-80
2022/12/20 04:50:55;;;;;;;0.20;0.20;;;;;;;11.00;75.76;101139.06;5030471;28;20048;-80
2022/12/20 04:53:53;;;;;;;0.10;0.10;;;;;;;11.00;76.14;101133.78;5024926;28;20044;-79
2022/12/20 04:56:08;;;;;;;0.10;0.10;;;;;;;11.06;75.82;101134.56;5021134;28;20458;-79
2022/12/20 04:58:34;;;;;;;0.25;0.25;;;;;;;11.08;76.27;101127.44;5011991;28;20621;-80
2022/12/20 05:01:00;;;;;;;0.63;0.63;;;;;;;11.08;76.43;101116.81;5017867;28;20519;-80
2022/12/20 05:03:26;;;;;;;0.10;0.10;;;;;;;11.11;76.04;101120.31;5024777;28;20548;-79
2022/12/20 05:05:53;;;;;;;0.40;0.40;;;;;;;11.10;76.50;101118.56;5017614;28;20033;-79
2022/12/20 05:08:19;;;;;;;0.10;0.10;;;;;;;11.04;76.66;101118.69;5013348;28;20037;-78
2022/12/20 05:10:46;;;;;;;0.20;0.20;;;;;;;11.09;76.56;101105.31;5018238;28;20108;-78
2022/12/20 05:13:12;;;;;;;0.10;0.10;;;;;;;11.13;76.61;101094.63;5018697;28;20021;-79
2022/12/20 05:15:38;;;;;;;0.20;0.20;;;;;;;11.14;75.86;101098.16;5010881;28;20072;-79
2022/12/20 05:18:05;;;;;;;0.10;0.10;;;;;;;11.09;76.54;101092.06;5020835;28;20034;-79
2022/12/20 05:20:31;;;;;;;0.20;0.20;;;;;;;11.07;76.36;101088.59;5021637;28;20029;-79
2022/12/20 05:28:27;;;;;;;0.10;0.10;;;;;;;11.13;76.57;101069.91;5112666;27;20376;-78
2022/12/20 05:30:53;;;;;;;0.10;0.10;;;;;;;11.12;77.09;101076.97;5114531;28;20036;-78
2022/12/20 05:33:19;;;;;;;0.20;0.20;;;;;;;11.16;76.30;101070.72;5112489;28;20032;-77
2022/12/20 05:35:46;;;;;;;0.10;0.10;;;;;;;11.18;76.80;101078.66;5124885;28;20097;-77
2022/12/20 05:38:15;;;;;;;0.10;0.10;;;;;;;11.19;76.52;101067.16;5112763;28;20016;-78
2022/12/20 05:40:41;;;;;;;0.15;0.15;;;;;;;11.19;75.96;101074.22;5109170;28;20027;-78
2022/12/20 05:43:08;;;;;;;0.63;0.63;;;;;;;11.23;76.59;101065.31;5110005;28;20024;-78
2022/12/20 05:45:34;;;;;;;0.10;0.10;;;;;;;11.17;76.54;101066.28;5111531;28;20130;-78
2022/12/20 05:48:00;;;;;;;0.10;0.10;;;;;;;11.13;76.45;101069.91;5114563;28;20023;-79
2022/12/20 05:50:27;;;;;;;0.10;0.10;;;;;;;11.23;76.64;101082.09;5115224;28;20544;-78
2022/12/20 05:52:53;;;;;;;0.52;0.52;;;;;;;11.20;76.59;101078.63;5113748;28;20032;-79
2022/12/20 05:55:19;;;;;;;0.10;0.10;;;;;;;11.25;76.39;101064.38;5112762;28;20031;-78
2022/12/20 05:57:45;;;;;;;0.28;0.28;;;;;;;11.26;75.96;101060.78;5125013;27;20024;-78
2022/12/20 06:00:12;;;;;;;0.50;0.50;;;;;;;11.24;75.62;101057.31;5117292;27;20360;-79
2022/12/20 06:02:38;;;;;;;0.10;0.10;;;;;;;11.28;76.19;101071.41;5103692;28;20035;-77
2022/12/20 06:05:05;;;;;;;0.25;0.25;;;;;;;11.24;76.06;101070.59;5101687;28;20107;-77
2022/12/20 06:07:31;;;;;;;0.10;0.10;;;;;;;11.28;75.25;101074.91;5100880;28;20032;-78
2022/12/20 06:09:58;;;;;;;0.20;0.20;;;;;;;11.21;75.51;101077.72;5108788;28;20144;-78
2022/12/20 06:12:25;;;;;;;0.50;0.50;;;;;;;11.23;75.70;101070.63;5107156;28;20078;-78
2022/12/20 06:14:51;;;;;;;0.15;0.15;;;;;;;11.24;75.20;101064.38;5103681;28;20031;-77
2022/12/20 06:17:18;;;;;;;0.15;0.15;;;;;;;11.24;75.35;101062.63;5102646;28;20563;-77
2022/12/20 06:19:45;;;;;;;0.10;0.10;;;;;;;11.24;75.53;101057.31;5106086;28;20374;-77
2022/12/20 06:22:12;;;;;;;0.20;0.20;;;;;;;11.29;75.33;101054.56;5112845;28;20019;-78
2022/12/20 06:24:38;;;;;;;0.20;0.20;;;;;;;11.22;74.75;101059.13;5103719;28;20035;-78
2022/12/20 06:27:05;;;;;;;0.10;0.10;;;;;;;11.18;74.47;101052.13;5101223;28;20024;-79
2022/12/20 06:29:32;;;;;;;0.10;0.10;;;;;;;11.17;74.68;101056.53;5096482;28;20036;-79
2022/12/20 06:31:58;;;;;;;0.10;0.10;;;;;;;11.18;74.63;101052.13;5104396;28;20028;-78
2022/12/20 06:34:24;;;;;;;0.13;0.13;;;;;;;11.15;74.76;101047.75;5105060;28;20402;-77
2022/12/20 06:36:50;;;;;;;0.28;0.28;;;;;;;11.10;74.45;101059.34;5106085;28;20055;-78
2022/12/20 06:39:16;;;;;;;0.50;0.50;;;;;;;11.15;74.03;101062.78;5090787;28;20089;-80
2022/12/20 06:41:43;;;;;;;0.10;0.10;;;;;;;11.12;73.96;101062.84;5093595;28;20039;-78
2022/12/20 06:44:09;;;;;;;0.25;0.25;;;;;;;11.12;74.17;101063.72;5083988;28;20048;-78
2022/12/20 06:46:35;;;;;;;0.10;0.10;;;;;;;11.15;74.35;101071.63;5088803;28;20131;-78
2022/12/20 06:49:01;;;;;;;0.10;0.10;;;;;;;11.13;74.09;101064.59;5095757;28;20051;-78
2022/12/20 06:51:27;;;;;;;0.30;0.30;;;;;;;11.10;73.75;101054.94;5101339;28;20043;-79
2022/12/20 06:53:53;;;;;;;0.15;0.15;;;;;;;11.09;74.19;101050.53;5096409;28;20031;-79
2022/12/20 06:56:19;;;;;;;0.30;0.30;;;;;;;11.10;73.92;101048.75;5089658;28;20471;-78
2022/12/20 06:58:46;;;;;;;0.10;0.10;;;;;;;11.09;74.12;101058.47;5097168;28;20397;-78
2022/12/20 07:01:12;;;;;;;0.17;0.17;;;;;;;11.16;73.78;101067.19;5093420;28;20089;-78
2022/12/20 07:03:38;;;;;;;0.20;0.20;;;;;;;11.13;73.81;101059.31;5087118;28;20044;-78
2022/12/20 07:06:04;;;;;;;2.75;0.95;;;;;;;11.17;73.93;101055.69;5086560;28;20028;-85
2022/12/20 07:08:31;;;;;;;0.10;0.10;;;;;;;11.16;73.41;101053.94;5094944;28;20405;-78
2022/12/20 07:11:05;;;;;;;0.10;0.10;;;;;;;11.16;73.57;101057.47;5099165;28;20028;-81
2022/12/20 07:13:31;;;;;;;0.10;0.10;;;;;;;11.19;73.53;101059.19;5097974;28;20587;-81
2022/12/20 07:15:59;;;;;;;0.10;0.10;;;;;;;11.16;73.74;101061.88;5101257;28;20633;-80
2022/12/20 07:18:25;;;;;;;0.10;0.10;;;;;;;11.23;73.76;101075.91;5098028;28;20020;-82
2022/12/20 07:20:51;;;;;;;0.10;0.10;;;;;;;11.21;73.53;101073.28;5096551;28;20035;-82
2022/12/20 07:23:18;;;;;;;0.10;0.10;;;;;;;11.19;73.73;101072.44;5096562;28;20028;-82
2022/12/20 07:25:51;;;;;;;0.10;0.10;;;;;;;11.24;73.67;101067.94;5088234;28;20672;-83
2022/12/20 07:28:17;;;;;;;0.10;0.10;;;;;;;11.26;73.69;101070.53;5096032;28;20031;-82
2022/12/20 07:30:43;;;;;;;0.35;0.35;;;;;;;11.29;73.88;101067.81;5099276;28;20135;-82
2022/12/20 07:33:10;;;;;;;0.30;0.30;;;;;;;11.29;73.69;101066.06;5098270;28;20037;-82
2022/12/20 07:35:36;;;;;;;0.20;0.20;;;;;;;11.28;73.55;101074.91;5095151;28;20076;-82
2022/12/20 07:38:02;;;;;;;0.10;0.10;;;;;;;11.29;73.91;101074.00;5091682;28;20031;-80
2022/12/20 07:40:28;;;;;;;0.20;0.20;;;;;;;11.29;73.78;101070.47;5090596;28;20430;-80
2022/12/20 07:42:54;;;;;;;0.20;0.20;;;;;;;11.29;73.69;101068.72;5090492;28;20518;-79
2022/12/20 07:45:20;;;;;;;0.10;0.10;;;;;;;11.28;73.54;101064.31;5089968;28;20414;-80
2022/12/20 07:47:47;;;;;;;0.20;0.20;;;;;;;11.30;74.12;101072.22;5094356;28;20478;-80
2022/12/20 07:50:16;;;;;;;0.10;0.10;;;;;;;11.28;74.30;101074.06;5094100;28;20571;-81
2022/12/20 07:52:45;;;;;;;0.43;0.25;;;;;;;11.25;74.37;101075.00;5094703;28;20032;-80
2022/12/20 07:55:13;;;;;;;0.20;0.20;;;;;;;11.26;73.91;101076.72;5104043;28;20024;-80
2022/12/20 07:57:48;;;;;;;0.10;0.10;;;;;;;11.32;73.85;101079.25;5104585;28;20035;-80
2022/12/20 08:00:15;;;;;;;0.20;0.20;;;;;;;11.25;74.12;101069.69;5092525;28;20028;-81
2022/12/20 08:02:51;;;;;;;0.10;0.10;;;;;;;11.24;74.12;101065.28;5090319;28;20032;-81
2022/12/20 08:05:17;;;;;;;0.20;0.20;;;;;;;11.17;74.59;101066.28;5089229;28;20064;-80
2022/12/20 08:07:45;;;;;;;0.20;0.20;;;;;;;11.17;74.68;101068.94;5096289;28;20020;-81
2022/12/20 08:10:13;;;;;;;0.10;0.10;;;;;;;11.14;74.95;101076.94;5094879;28;20031;-82
2022/12/20 08:12:42;;;;;;;2.25;2.05;;;;;;;11.16;74.88;101075.16;5092685;28;20035;-81
2022/12/20 08:15:09;;;;;;;8.52;2.65;;;;;;;11.11;74.92;101077.00;5086767;28;20040;-81
2022/12/20 08:17:35;;;;;;;0.60;0.60;;;;;;;11.13;74.89;101072.56;5090689;28;20050;-82
2022/12/20 08:20:01;;;;;;;0.20;0.20;;;;;;;11.11;75.09;101071.72;5086930;28;20456;-82
2022/12/20 08:22:27;;;;;;;0.20;0.20;;;;;;;11.10;75.39;101073.50;5088110;28;20077;-81
2022/12/20 08:24:54;;;;;;;0.20;0.20;;;;;;;11.08;74.70;101071.75;5093720;28;20027;-82
2022/12/20 08:27:20;;;;;;;0.17;0.17;;;;;;;11.14;75.40;101063.69;5093921;28;20047;-82
2022/12/20 08:29:46;;;;;;;0.10;0.10;;;;;;;11.15;75.31;101063.69;5092684;28;20064;-81
2022/12/20 08:32:13;;;;;;;0.15;0.15;;;;;;;11.14;75.20;101055.72;5084909;28;20084;-80
2022/12/20 08:34:39;;;;;;;0.10;0.10;;;;;;;11.18;74.58;101057.44;5097190;28;20032;-80
2022/12/20 08:37:05;;;;;;;0.20;0.20;;;;;;;11.19;74.74;101058.28;5084443;28;20024;-81
2022/12/20 08:39:31;;;;;;;0.40;0.32;;;;;;;11.13;74.86;101060.16;5090082;28;20028;-80
2022/12/20 08:41:57;;;;;;;0.10;0.10;;;;;;;11.15;75.07;101058.38;5084208;28;20035;-81
2022/12/20 08:44:24;;;;;;;0.10;0.10;;;;;;;11.20;74.51;101060.06;5088747;28;20032;-81
2022/12/20 08:46:50;;;;;;;0.47;0.47;;;;;;;11.17;74.69;101066.28;5089850;28;20028;-81
2022/12/20 08:49:17;;;;;;;0.20;0.20;;;;;;;11.19;74.71;101066.25;5089880;28;20040;-82
2022/12/20 08:51:43;;;;;;;0.10;0.10;;;;;;;11.17;75.00;101066.28;5091793;28;20032;-82
2022/12/20 08:54:09;;;;;;;0.20;0.20;;;;;;;11.17;74.68;101066.28;5106701;28;20028;-82
2022/12/20 08:56:35;;;;;;;0.10;0.10;;;;;;;11.04;75.76;101065.66;5101578;28;20024;-81
2022/12/20 08:59:01;;;;;;;0.20;0.20;;;;;;;11.15;75.07;101066.31;5090201;28;20050;-81
2022/12/20 09:01:29;;;;;;;0.43;0.43;;;;;;;11.16;75.33;101069.84;5085733;28;20024;-81
2022/12/20 09:03:55;;;;;;;0.20;0.20;;;;;;;11.15;75.34;101068.97;5093752;28;20103;-82
2022/12/20 09:06:22;;;;;;;1.58;0.55;;;;;;;11.13;75.76;101075.22;5093590;28;20054;-82
2022/12/20 09:08:49;;;;;;;0.20;0.20;;;;;;;11.17;75.09;101066.28;5093227;28;20404;-81
2022/12/20 09:11:18;;;;;;;0.10;0.10;;;;;;;11.14;75.67;101063.69;5094588;28;20024;-81
2022/12/20 09:13:46;;;;;;;1.90;1.45;;;;;;;11.13;75.83;101064.59;5092544;28;20111;-81
2022/12/20 09:16:17;;;;;;;0.10;0.10;;;;;;;11.08;75.81;101074.41;5091062;28;20031;-81
2022/12/20 09:18:46;;;;;;;0.10;0.10;;;;;;;11.11;75.92;101077.00;5093780;28;20032;-81
2022/12/20 09:21:15;;;;;;;0.28;0.28;;;;;;;11.15;75.77;101073.38;5089469;28;20035;-81
2022/12/20 09:23:41;;;;;;;0.20;0.20;;;;;;;11.18;76.08;101078.66;5093314;28;20036;-82
2022/12/20 09:26:11;;;;;;;0.03;0.03;;;;;;;11.12;77.20;101086.72;5098314;28;20031;-81
2022/12/20 09:28:37;;;;;;;0.20;0.20;;;;;;;11.17;76.76;101087.50;5098227;28;20021;-80
2022/12/20 09:31:08;;;;;;;0.10;0.10;;;;;;;11.18;76.92;101073.34;5093540;28;20023;-81
2022/12/20 09:33:35;;;;;;;0.20;0.20;;;;;;;11.19;77.53;101085.72;5105806;28;20099;-82
2022/12/20 09:36:02;;;;;;;0.20;0.20;;;;;;;11.19;77.83;101080.41;5095543;28;20481;-81
2022/12/20 09:38:31;;;;;;;0.20;0.20;;;;;;;11.32;76.68;101076.59;5094995;28;20039;-81
2022/12/20 09:41:02;;;;;;;0.10;0.10;;;;;;;11.32;77.32;101081.03;5093856;28;20035;-81
2022/12/20 09:43:28;;;;;;;0.30;0.30;;;;;;;11.32;77.33;101076.59;5094691;28;20024;-82
2022/12/20 09:45:57;;;;;;;0.20;0.20;;;;;;;11.31;77.54;101079.28;5093354;28;20024;-81
2022/12/20 09:48:31;;;;;;;0.10;0.10;;;;;;;11.39;77.24;101082.66;5093906;28;20107;-80
2022/12/20 09:56:36;;;;;;;0.20;0.20;;;;;;;11.46;77.57;101083.41;5074992;28;20458;-81
2022/12/20 09:59:19;;;;;;;0.10;0.10;;;;;;;11.53;78.02;101068.25;5082991;28;20035;-81
2022/12/20 10:01:48;;;;;;;0.20;0.20;;;;;;;11.53;77.62;101068.25;5093012;28;20029;-80
2022/12/20 10:04:24;;;;;;;0.28;0.28;;;;;;;11.55;78.01;101061.13;5087912;28;20095;-80
2022/12/20 10:07:16;;;;;;;0.30;0.30;;;;;;;11.65;77.75;101074.19;5073642;28;20051;-82
2022/12/20 10:12:43;;;;;;;0.10;0.10;;;;;;;11.61;77.75;101074.28;5072545;28;20371;-82
2022/12/20 10:15:20;;;;;;;0.15;0.15;;;;;;;11.67;77.43;101070.63;5056957;28;20513;-82
2022/12/20 10:17:56;;;;;;;0.38;0.38;;;;;;;11.56;77.89;101063.75;5048820;28;20017;-82
2022/12/20 10:23:42;;;;;;;1.00;0.95;;;;;;;11.59;78.23;101057.50;5129812;27;1206615;-82
2022/12/20 10:26:10;;;;;;;0.28;0.28;;;;;;;11.63;78.13;101057.41;5160011;27;20124;-82
2022/12/20 10:28:37;;;;;;;0.15;0.15;;;;;;;11.65;77.77;101058.25;5137805;27;20026;-82
2022/12/20 10:31:11;;;;;;;0.17;0.17;;;;;;;11.65;77.52;101058.25;5137868;27;20032;-82
2022/12/20 10:33:37;;;;;;;0.20;0.20;;;;;;;11.65;78.21;101063.56;5134612;27;20042;-82
2022/12/20 10:36:36;;;;;;;0.13;0.13;;;;;;;11.69;77.76;101058.19;5139170;27;20062;-82
2022/12/20 10:39:07;;;;;;;0.20;0.20;;;;;;;11.69;78.11;101052.88;5141105;27;20031;-83
2022/12/20 10:41:48;;;;;;;0.10;0.10;;;;;;;11.67;77.87;101052.06;5135733;27;20024;-82
2022/12/20 10:46:56;;;;;;;0.30;0.30;;;;;;;11.74;77.20;101043.03;5115456;27;20360;-81
2022/12/20 10:54:46;;;;;;;0.77;0.77;;;;;;;11.69;77.65;101052.88;5129351;27;20404;-82
2022/12/20 10:57:24;;;;;;;0.20;0.20;;;;;;;11.70;77.59;101046.66;5094498;28;20535;-82
2022/12/20 10:59:57;;;;;;;4.00;0.80;;;;;;;11.65;77.97;101042.34;5087978;28;20032;-81
2022/12/20 11:10:31;;;;;;;0.10;0.10;;;;;;;11.76;77.95;101043.88;5140913;27;20395;-81
2022/12/20 11:13:00;;;;;;;0.75;0.75;;;;;;;11.77;78.45;101029.69;5140214;27;20035;-80
2022/12/20 11:23:48;;;;;;;0.20;0.20;;;;;;;11.79;77.65;101038.50;5100477;27;20598;-81
2022/12/20 11:26:42;;;;;;;0.10;0.10;;;;;;;11.84;77.54;101047.25;5076324;28;20074;-82
2022/12/20 11:29:37;;;;;;;0.20;0.20;;;;;;;11.83;77.82;101040.19;5071022;28;20021;-82
2022/12/20 11:32:31;;;;;;;0.10;0.10;;;;;;;11.86;77.59;101033.94;5070382;28;20096;-82
2022/12/20 11:38:14;;;;;;;0.20;0.20;;;;;;;11.86;77.56;101029.47;5049665;28;20782;-82
2022/12/20 11:46:33;;;;;;;0.55;0.55;;;;;;;11.88;78.17;101029.47;5091414;27;20377;-82
2022/12/20 11:49:32;;;;;;;0.13;0.13;;;;;;;11.88;78.86;101019.72;5073579;28;20036;-82
2022/12/20 11:52:18;;;;;;;0.20;0.20;;;;;;;11.84;78.74;101033.09;5074664;28;20461;-82
2022/12/20 11:54:58;;;;;;;0.20;0.20;;;;;;;11.85;78.49;101022.44;5069939;28;20028;-82
2022/12/20 11:57:31;;;;;;;0.20;0.20;;;;;;;11.83;78.74;101029.56;5071749;28;20021;-82
2022/12/20 12:00:01;;;;;;;0.10;0.10;;;;;;;11.84;78.29;101026.00;5063691;28;20029;-82
2022/12/20 12:02:40;;;;;;;0.20;0.20;;;;;;;11.88;78.50;101027.69;5063143;28;20032;-82
2022/12/20 12:05:33;;;;;;;0.10;0.10;;;;;;;11.94;78.59;101024.88;5063763;28;20037;-81
2022/12/20 12:08:06;;;;;;;0.10;0.10;;;;;;;11.93;78.81;101020.47;5073658;28;20044;-82
2022/12/20 12:10:38;;;;;;;0.10;0.10;;;;;;;11.92;78.36;101017.88;5070106;28;20093;-82
2022/12/20 12:18:29;;;;;;;0.10;0.10;;;;;;;11.98;78.49;101018.63;5085040;27;20395;-81
2022/12/20 12:21:21;;;;;;;0.38;0.38;;;;;;;12.01;77.69;101019.47;5078111;28;20028;-81
2022/12/20 12:26:33;;;;;;;0.10;0.10;;;;;;;11.94;78.56;101014.25;5133190;27;20359;-82
2022/12/20 12:29:04;;;;;;;0.20;0.20;;;;;;;11.98;78.75;101013.31;5088693;28;20028;-81
2022/12/20 12:32:00;;;;;;;2.45;2.28;;;;;;;12.00;78.56;101015.06;5090556;28;20016;-81
2022/12/20 12:37:48;;;;;;;0.30;0.30;;;;;;;12.02;78.07;101024.72;5096759;27;1279178;-82
2022/12/20 12:43:40;;;;;;;0.20;0.20;;;;;;;11.95;78.32;101016.00;5088043;27;1173758;-84
2022/12/20 12:46:18;;;;;;;0.20;0.20;;;;;;;11.98;78.23;101023.94;5113593;28;20278;-82
2022/12/20 12:49:16;;;;;;;0.20;0.20;;;;;;;12.01;78.33;101019.47;5111875;28;20081;-84
2022/12/20 12:51:49;;;;;;;0.20;0.20;;;;;;;12.02;78.29;101018.56;5115445;28;20019;-84
2022/12/20 12:56:58;;;;;;;0.10;0.10;;;;;;;11.98;77.95;101021.28;5107988;27;20148;-80